createdAt,value
2023-06-28T00:00:51.186Z,500.00
2023-06-28T00:01:51.262Z,500.00
2023-06-28T00:02:51.231Z,500.00
2023-06-28T00:03:51.270Z,445.00
2023-06-28T00:04:51.234Z,415.00
2023-06-28T00:05:51.240Z,401.00
2023-06-28T00:06:51.297Z,402.00
2023-06-28T00:07:51.255Z,421.00
2023-06-28T00:08:51.290Z,444.00
2023-06-28T00:09:51.297Z,470.00
2023-06-28T00:10:51.328Z,493.00
2023-06-28T00:11:51.320Z,500.00
2023-06-28T00:12:51.317Z,500.00
2023-06-28T00:13:51.360Z,500.00
2023-06-28T00:14:51.339Z,500.00
2023-06-28T00:15:51.393Z,500.00
2023-06-28T00:16:51.464Z,501.00
2023-06-28T00:17:51.572Z,502.00
2023-06-28T00:18:51.584Z,501.00
2023-06-28T00:19:51.642Z,500.00
2023-06-28T00:20:51.716Z,503.00
2023-06-28T00:21:51.786Z,501.00
2023-06-28T00:22:51.858Z,499.00
2023-06-28T00:23:51.921Z,500.00
2023-06-28T00:24:51.982Z,501.00
2023-06-28T00:25:52.045Z,500.00
2023-06-28T00:26:52.110Z,503.00
2023-06-28T00:27:52.156Z,507.00
2023-06-28T00:28:52.219Z,504.00
2023-06-28T00:29:52.319Z,503.00
2023-06-28T00:30:52.364Z,500.00
2023-06-28T00:31:52.429Z,501.00
2023-06-28T00:32:52.574Z,500.00
2023-06-28T00:33:52.534Z,500.00
2023-06-28T00:34:52.608Z,500.00
2023-06-28T00:35:52.684Z,510.00
2023-06-28T00:36:52.756Z,502.00
2023-06-28T00:37:52.815Z,500.00
2023-06-28T00:38:52.884Z,506.00
2023-06-28T00:39:52.955Z,500.00
2023-06-28T00:40:53.009Z,507.00
2023-06-28T00:41:53.108Z,500.00
2023-06-28T00:42:53.153Z,503.00
2023-06-28T00:43:53.228Z,500.00
2023-06-28T00:44:53.287Z,506.00
2023-06-28T00:45:53.385Z,521.00
2023-06-28T00:46:53.424Z,527.00
2023-06-28T00:47:53.531Z,521.00
2023-06-28T00:48:53.564Z,513.00
2023-06-28T00:49:53.625Z,518.00
2023-06-28T00:50:53.722Z,510.00
2023-06-28T00:51:53.775Z,512.00
2023-06-28T00:52:53.828Z,510.00
2023-06-28T00:53:53.912Z,502.00
2023-06-28T00:54:53.968Z,503.00
2023-06-28T00:55:54.018Z,505.00
2023-06-28T00:56:54.154Z,507.00
2023-06-28T00:57:54.151Z,510.00
2023-06-28T00:58:54.235Z,500.00
2023-06-28T00:59:54.279Z,505.00
2023-06-28T01:00:54.354Z,508.00
2023-06-28T01:01:54.426Z,500.00
2023-06-28T01:02:54.490Z,507.00
2023-06-28T01:03:54.616Z,503.00
2023-06-28T01:04:54.620Z,500.00
2023-06-28T01:05:54.683Z,504.00
2023-06-28T01:06:54.858Z,525.00
2023-06-28T01:07:54.806Z,519.00
2023-06-28T01:08:54.862Z,511.00
2023-06-28T01:09:54.917Z,505.00
2023-06-28T01:10:54.984Z,507.00
2023-06-28T01:11:55.053Z,532.00
2023-06-28T01:12:55.127Z,538.00
2023-06-28T01:13:55.196Z,537.00
2023-06-28T01:14:55.271Z,521.00
2023-06-28T01:15:55.342Z,517.00
2023-06-28T01:16:55.409Z,517.00
2023-06-28T01:17:55.557Z,516.00
2023-06-28T01:18:55.576Z,520.00
2023-06-28T01:19:55.643Z,519.00
2023-06-28T01:20:55.810Z,514.00
2023-06-28T01:21:55.768Z,510.00
2023-06-28T01:22:55.857Z,515.00
2023-06-28T01:23:55.894Z,506.00
2023-06-28T01:24:55.961Z,509.00
2023-06-28T01:25:56.030Z,514.00
2023-06-28T01:26:56.108Z,517.00
2023-06-28T01:27:56.158Z,513.00
2023-06-28T01:28:56.221Z,520.00
2023-06-28T01:29:56.291Z,522.00
2023-06-28T01:30:56.364Z,525.00
2023-06-28T01:31:56.445Z,545.00
2023-06-28T01:32:56.594Z,547.00
2023-06-28T01:33:56.783Z,550.00
2023-06-28T01:34:56.625Z,558.00
2023-06-28T01:35:56.685Z,557.00
2023-06-28T01:36:56.752Z,551.00
2023-06-28T01:37:56.865Z,559.00
2023-06-28T01:38:56.893Z,545.00
2023-06-28T01:39:56.974Z,545.00
2023-06-28T01:40:57.041Z,537.00
2023-06-28T01:41:57.086Z,527.00
2023-06-28T01:42:57.168Z,524.00
2023-06-28T01:43:57.239Z,522.00
2023-06-28T01:44:57.310Z,519.00
2023-06-28T01:45:57.393Z,529.00
2023-06-28T01:46:57.445Z,526.00
2023-06-28T01:47:57.552Z,524.00
2023-06-28T01:48:57.595Z,526.00
2023-06-28T01:49:57.683Z,533.00
2023-06-28T01:50:57.751Z,529.00
2023-06-28T01:51:57.818Z,526.00
2023-06-28T01:52:57.884Z,535.00
2023-06-28T01:53:57.948Z,524.00
2023-06-28T01:54:58.009Z,525.00
2023-06-28T01:55:58.076Z,524.00
2023-06-28T01:56:58.142Z,528.00
2023-06-28T01:57:58.212Z,530.00
2023-06-28T01:58:58.280Z,544.00
2023-06-28T01:59:58.344Z,555.00
2023-06-28T02:00:58.446Z,549.00
2023-06-28T02:01:58.484Z,532.00
2023-06-28T02:02:58.647Z,537.00
2023-06-28T02:03:58.788Z,541.00
2023-06-28T02:04:58.686Z,540.00
2023-06-28T02:05:58.773Z,537.00
2023-06-28T02:06:58.922Z,543.00
2023-06-28T02:07:58.883Z,562.00
2023-06-28T02:08:58.954Z,550.00
2023-06-28T02:09:59.031Z,559.00
2023-06-28T02:10:59.081Z,561.00
2023-06-28T02:11:59.158Z,560.00
2023-06-28T02:12:59.216Z,559.00
2023-06-28T02:13:59.295Z,565.00
2023-06-28T02:14:59.379Z,562.00
2023-06-28T02:15:59.440Z,559.00
2023-06-28T02:16:59.503Z,562.00
2023-06-28T02:17:59.875Z,566.00
2023-06-28T02:18:59.642Z,564.00
2023-06-28T02:19:59.718Z,562.00
2023-06-28T02:20:59.774Z,560.00
2023-06-28T02:21:59.871Z,567.00
2023-06-28T02:22:59.922Z,566.00
2023-06-28T02:23:59.981Z,546.00
2023-06-28T02:25:00.070Z,544.00
2023-06-28T02:26:00.135Z,549.00
2023-06-28T02:27:00.237Z,551.00
2023-06-28T02:28:00.306Z,561.00
2023-06-28T02:29:00.357Z,550.00
2023-06-28T02:30:00.446Z,558.00
2023-06-28T02:31:00.573Z,560.00
2023-06-28T02:32:00.721Z,558.00
2023-06-28T02:33:00.735Z,566.00
2023-06-28T02:34:00.712Z,565.00
2023-06-28T02:35:00.790Z,562.00
2023-06-28T02:36:00.859Z,567.00
2023-06-28T02:37:00.921Z,564.00
2023-06-28T02:38:01.022Z,560.00
2023-06-28T02:39:01.060Z,560.00
2023-06-28T02:40:01.122Z,557.00
2023-06-28T02:41:01.187Z,557.00
2023-06-28T02:42:01.375Z,561.00
2023-06-28T02:43:01.390Z,564.00
2023-06-28T02:44:01.379Z,557.00
2023-06-28T02:45:01.462Z,548.00
2023-06-28T02:46:01.505Z,542.00
2023-06-28T02:47:01.613Z,544.00
2023-06-28T02:48:01.648Z,547.00
2023-06-28T02:49:01.706Z,534.00
2023-06-28T02:50:01.780Z,532.00
2023-06-28T02:51:01.876Z,537.00
2023-06-28T02:52:01.929Z,530.00
2023-06-28T02:53:02.027Z,526.00
2023-06-28T02:54:02.085Z,531.00
2023-06-28T02:55:02.189Z,521.00
2023-06-28T02:56:02.217Z,526.00
2023-06-28T02:57:02.286Z,532.00
2023-06-28T02:58:02.358Z,528.00
2023-06-28T02:59:02.420Z,536.00
2023-06-28T03:00:02.482Z,520.00
2023-06-28T03:01:02.583Z,532.00
2023-06-28T03:02:02.625Z,542.00
2023-06-28T03:03:02.852Z,543.00
2023-06-28T03:04:02.855Z,534.00
2023-06-28T03:05:02.857Z,535.00
2023-06-28T03:06:03.067Z,532.00
2023-06-28T03:07:03.128Z,531.00
2023-06-28T03:08:03.077Z,534.00
2023-06-28T03:09:03.144Z,530.00
2023-06-28T03:10:03.250Z,533.00
2023-06-28T03:11:03.310Z,538.00
2023-06-28T03:12:03.382Z,547.00
2023-06-28T03:13:03.454Z,535.00
2023-06-28T03:14:03.521Z,545.00
2023-06-28T03:15:04.224Z,526.00
2023-06-28T03:16:03.720Z,536.00
2023-06-28T03:17:03.716Z,536.00
2023-06-28T03:18:03.862Z,530.00
2023-06-28T03:19:03.827Z,526.00
2023-06-28T03:20:03.891Z,532.00
2023-06-28T03:21:03.943Z,535.00
2023-06-28T03:22:04.003Z,533.00
2023-06-28T03:23:04.050Z,541.00
2023-06-28T03:24:04.121Z,545.00
2023-06-28T03:25:04.181Z,538.00
2023-06-28T03:26:04.243Z,529.00
2023-06-28T03:27:04.284Z,535.00
2023-06-28T03:28:04.355Z,520.00
2023-06-28T03:29:04.425Z,523.00
2023-06-28T03:30:04.476Z,528.00
2023-06-28T03:31:04.544Z,529.00
2023-06-28T03:32:04.610Z,537.00
2023-06-28T03:33:04.657Z,538.00
2023-06-28T03:34:04.683Z,538.00
2023-06-28T03:35:04.747Z,547.00
2023-06-28T03:36:04.804Z,543.00
2023-06-28T03:37:05.500Z,532.00
2023-06-28T03:38:04.996Z,535.00
2023-06-28T03:39:04.963Z,525.00
2023-06-28T03:40:05.008Z,536.00
2023-06-28T03:41:05.089Z,538.00
2023-06-28T03:42:05.148Z,531.00
2023-06-28T03:43:05.172Z,536.00
2023-06-28T03:44:06.048Z,533.00
2023-06-28T03:45:05.215Z,533.00
2023-06-28T03:46:05.263Z,541.00
2023-06-28T03:47:05.241Z,533.00
2023-06-28T03:48:05.244Z,540.00
2023-06-28T03:49:05.258Z,534.00
2023-06-28T03:50:05.348Z,544.00
2023-06-28T03:51:05.279Z,546.00
2023-06-28T03:52:05.297Z,544.00
2023-06-28T03:53:05.308Z,547.00
2023-06-28T03:54:05.312Z,548.00
2023-06-28T03:55:05.325Z,544.00
2023-06-28T03:56:05.331Z,541.00
2023-06-28T03:57:05.343Z,551.00
2023-06-28T03:58:05.407Z,546.00
2023-06-28T03:59:05.398Z,554.00
2023-06-28T04:00:05.408Z,535.00
2023-06-28T04:01:05.410Z,543.00
2023-06-28T04:02:05.454Z,549.00
2023-06-28T04:03:05.475Z,544.00
2023-06-28T04:04:05.510Z,546.00
2023-06-28T04:05:05.457Z,548.00
2023-06-28T04:06:05.466Z,542.00
2023-06-28T04:07:05.498Z,549.00
2023-06-28T04:08:05.490Z,550.00
2023-06-28T04:09:05.524Z,547.00
2023-06-28T04:10:05.528Z,546.00
2023-06-28T04:11:05.539Z,539.00
2023-06-28T04:12:05.552Z,538.00
2023-06-28T04:13:05.560Z,542.00
2023-06-28T04:14:05.638Z,546.00
2023-06-28T04:15:05.666Z,546.00
2023-06-28T04:16:05.741Z,542.00
2023-06-28T04:17:05.790Z,545.00
2023-06-28T04:18:05.848Z,552.00
2023-06-28T04:19:05.923Z,553.00
2023-06-28T04:20:05.972Z,548.00
2023-06-28T04:21:06.038Z,547.00
2023-06-28T04:22:06.125Z,552.00
2023-06-28T04:23:06.194Z,549.00
2023-06-28T04:24:06.201Z,552.00
2023-06-28T04:25:06.241Z,548.00
2023-06-28T04:26:06.280Z,551.00
2023-06-28T04:27:06.313Z,542.00
2023-06-28T04:28:06.358Z,544.00
2023-06-28T04:29:06.422Z,546.00
2023-06-28T04:30:06.509Z,547.00
2023-06-28T04:31:06.637Z,550.00
2023-06-28T04:32:06.651Z,545.00
2023-06-28T04:33:06.792Z,540.00
2023-06-28T04:34:06.793Z,544.00
2023-06-28T04:35:06.908Z,550.00
2023-06-28T04:36:06.947Z,544.00
2023-06-28T04:37:15.304Z,539.00
2023-06-28T04:38:07.011Z,540.00
2023-06-28T04:39:07.021Z,543.00
2023-06-28T04:40:07.053Z,545.00
2023-06-28T04:41:07.375Z,544.00
2023-06-28T04:42:07.059Z,554.00
2023-06-28T04:43:07.081Z,552.00
2023-06-28T04:44:07.090Z,550.00
2023-06-28T04:45:07.115Z,534.00
2023-06-28T04:46:07.182Z,522.00
2023-06-28T04:47:07.176Z,530.00
2023-06-28T04:48:07.326Z,519.00
2023-06-28T04:49:08.164Z,522.00
2023-06-28T04:50:07.172Z,524.00
2023-06-28T04:51:07.203Z,534.00
2023-06-28T04:52:07.211Z,528.00
2023-06-28T04:53:07.244Z,522.00
2023-06-28T04:54:07.245Z,526.00
2023-06-28T04:55:07.250Z,529.00
2023-06-28T04:56:07.264Z,525.00
2023-06-28T04:57:07.288Z,531.00
2023-06-28T04:58:07.348Z,525.00
2023-06-28T04:59:07.405Z,522.00
2023-06-28T05:00:07.475Z,524.00
2023-06-28T05:01:07.660Z,527.00
2023-06-28T05:02:07.633Z,524.00
2023-06-28T05:03:07.669Z,524.00
2023-06-28T05:04:07.678Z,518.00
2023-06-28T05:05:07.720Z,515.00
2023-06-28T05:06:07.806Z,522.00
2023-06-28T05:07:07.852Z,509.00
2023-06-28T05:08:07.888Z,518.00
2023-06-28T05:09:07.927Z,522.00
2023-06-28T05:10:08.012Z,525.00
2023-06-28T05:11:08.043Z,520.00
2023-06-28T05:12:08.119Z,523.00
2023-06-28T05:13:08.164Z,526.00
2023-06-28T05:14:08.242Z,520.00
2023-06-28T05:15:08.285Z,515.00
2023-06-28T05:16:08.325Z,517.00
2023-06-28T05:17:08.364Z,513.00
2023-06-28T05:18:08.601Z,518.00
2023-06-28T05:19:08.488Z,513.00
2023-06-28T05:20:08.544Z,519.00
2023-06-28T05:21:08.599Z,518.00
2023-06-28T05:22:08.952Z,514.00
2023-06-28T05:23:08.673Z,510.00
2023-06-28T05:24:08.695Z,511.00
2023-06-28T05:25:08.733Z,513.00
2023-06-28T05:26:08.801Z,513.00
2023-06-28T05:27:08.831Z,511.00
2023-06-28T05:28:08.876Z,515.00
2023-06-28T05:29:08.916Z,517.00
2023-06-28T05:30:08.989Z,509.00
2023-06-28T05:31:09.049Z,519.00
2023-06-28T05:32:09.047Z,513.00
2023-06-28T05:33:09.088Z,513.00
2023-06-28T05:34:09.158Z,515.00
2023-06-28T05:35:09.178Z,506.00
2023-06-28T05:36:09.232Z,510.00
2023-06-28T05:37:09.261Z,510.00
2023-06-28T05:38:09.318Z,506.00
2023-06-28T05:39:12.435Z,505.00
2023-06-28T05:40:09.362Z,505.00
2023-06-28T05:41:09.373Z,506.00
2023-06-28T05:42:09.377Z,509.00
2023-06-28T05:43:09.390Z,510.00
2023-06-28T05:44:09.570Z,512.00
2023-06-28T05:45:09.414Z,514.00
2023-06-28T05:46:10.096Z,512.00
2023-06-28T05:47:09.446Z,511.00
2023-06-28T05:48:09.586Z,511.00
2023-06-28T05:49:10.168Z,506.00
2023-06-28T05:50:09.501Z,510.00
2023-06-28T05:51:09.515Z,517.00
2023-06-28T05:52:09.497Z,554.00
2023-06-28T05:53:09.622Z,543.00
2023-06-28T05:54:10.095Z,531.00
2023-06-28T05:55:09.552Z,521.00
2023-06-28T05:56:09.969Z,524.00
2023-06-28T05:57:09.560Z,526.00
2023-06-28T05:58:09.568Z,526.00
2023-06-28T05:59:09.964Z,510.00
2023-06-28T06:00:09.601Z,510.00
2023-06-28T06:01:09.963Z,523.00
2023-06-28T06:02:09.678Z,475.00
2023-06-28T06:03:09.697Z,430.00
2023-06-28T06:04:09.753Z,418.00
2023-06-28T06:05:09.954Z,426.00
2023-06-28T06:06:10.001Z,443.00
2023-06-28T06:07:09.827Z,474.00
2023-06-28T06:08:09.819Z,498.00
2023-06-28T06:09:09.934Z,501.00
2023-06-28T06:10:09.940Z,500.00
2023-06-28T06:11:10.462Z,500.00
2023-06-28T06:12:10.112Z,503.00
2023-06-28T06:13:10.232Z,504.00
2023-06-28T06:14:10.356Z,502.00
2023-06-28T06:15:10.420Z,508.00
2023-06-28T06:16:10.985Z,513.00
2023-06-28T06:17:10.631Z,509.00
2023-06-28T06:18:10.788Z,506.00
2023-06-28T06:19:12.088Z,513.00
2023-06-28T06:20:10.850Z,523.00
2023-06-28T06:21:10.914Z,543.00
2023-06-28T06:22:11.026Z,548.00
2023-06-28T06:23:11.008Z,572.00
2023-06-28T06:24:11.080Z,570.00
2023-06-28T06:25:11.472Z,577.00
2023-06-28T06:26:11.183Z,577.00
2023-06-28T06:27:11.223Z,569.00
2023-06-28T06:28:11.289Z,581.00
2023-06-28T06:29:11.341Z,573.00
2023-06-28T06:30:11.402Z,572.00
2023-06-28T06:31:11.592Z,577.00
2023-06-28T06:32:11.517Z,577.00
2023-06-28T06:33:12.534Z,584.00
2023-06-28T06:34:11.635Z,589.00
2023-06-28T06:35:11.713Z,584.00
2023-06-28T06:36:11.763Z,592.00
2023-06-28T06:37:11.833Z,597.00
2023-06-28T06:38:12.004Z,599.00
2023-06-28T06:39:11.942Z,606.00
2023-06-28T06:40:12.020Z,618.00
2023-06-28T06:41:12.079Z,624.00
2023-06-28T06:42:12.538Z,636.00
2023-06-28T06:43:12.185Z,657.00
2023-06-28T06:44:12.977Z,662.00
2023-06-28T06:45:12.312Z,662.00
2023-06-28T06:46:12.391Z,665.00
2023-06-28T06:47:12.488Z,655.00
2023-06-28T06:48:12.619Z,648.00
2023-06-28T06:49:12.720Z,651.00
2023-06-28T06:50:12.830Z,646.00
2023-06-28T06:51:12.987Z,638.00
2023-06-28T06:52:13.073Z,633.00
2023-06-28T06:53:13.189Z,625.00
2023-06-28T06:54:13.402Z,622.00
2023-06-28T06:55:13.541Z,611.00
2023-06-28T06:56:13.580Z,603.00
2023-06-28T06:57:13.669Z,600.00
2023-06-28T06:58:13.996Z,600.00
2023-06-28T06:59:13.917Z,605.00
2023-06-28T07:00:14.085Z,599.00
2023-06-28T07:01:14.298Z,589.00
2023-06-28T07:02:14.255Z,578.00
2023-06-28T07:03:14.572Z,569.00
2023-06-28T07:04:14.520Z,562.00
2023-06-28T07:05:14.694Z,558.00
2023-06-28T07:06:14.989Z,547.00
2023-06-28T07:07:14.933Z,550.00
2023-06-28T07:08:15.046Z,563.00
2023-06-28T07:09:15.469Z,570.00
2023-06-28T07:10:15.286Z,594.00
2023-06-28T07:11:15.403Z,592.00
2023-06-28T07:12:15.999Z,589.00
2023-06-28T07:13:15.676Z,593.00
2023-06-28T07:14:16.001Z,595.00
2023-06-28T07:15:15.844Z,593.00
2023-06-28T07:16:15.996Z,595.00
2023-06-28T07:17:16.035Z,598.00
2023-06-28T07:18:16.177Z,609.00
2023-06-28T07:19:16.246Z,606.00
2023-06-28T07:20:16.291Z,609.00
2023-06-28T07:21:16.365Z,600.00
2023-06-28T07:22:16.511Z,596.00
2023-06-28T07:23:16.542Z,592.00
2023-06-28T07:24:16.626Z,600.00
2023-06-28T07:25:16.852Z,595.00
2023-06-28T07:26:16.797Z,609.00
2023-06-28T07:27:16.869Z,610.00
2023-06-28T07:28:16.967Z,604.00
2023-06-28T07:29:17.511Z,602.00
2023-06-28T07:30:17.112Z,599.00
2023-06-28T07:31:17.216Z,599.00
2023-06-28T07:32:17.290Z,597.00
2023-06-28T07:33:17.525Z,629.00
2023-06-28T07:34:17.497Z,634.00
2023-06-28T07:35:17.565Z,631.00
2023-06-28T07:36:17.684Z,636.00
2023-06-28T07:37:17.793Z,738.00
2023-06-28T07:38:17.895Z,757.00
2023-06-28T07:39:17.999Z,716.00
2023-06-28T07:40:18.059Z,743.00
2023-06-28T07:41:18.612Z,753.00
2023-06-28T07:42:18.196Z,785.00
2023-06-28T07:43:18.297Z,805.00
2023-06-28T07:44:18.500Z,819.00
2023-06-28T07:45:18.480Z,840.00
2023-06-28T07:46:18.605Z,834.00
2023-06-28T07:47:18.685Z,869.00
2023-06-28T07:48:18.831Z,908.00
2023-06-28T07:49:19.004Z,934.00
2023-06-28T07:50:19.009Z,905.00
2023-06-28T07:51:19.057Z,906.00
2023-06-28T07:52:19.154Z,937.00
2023-06-28T07:53:19.226Z,952.00
2023-06-28T07:54:32.534Z,984.00
2023-06-28T07:55:19.511Z,985.00
2023-06-28T07:56:19.381Z,992.00
2023-06-28T07:57:19.456Z,1004.00
2023-06-28T07:58:19.471Z,1026.00
2023-06-28T07:59:19.582Z,1064.00
2023-06-28T08:00:20.514Z,1117.00
2023-06-28T08:01:19.629Z,1145.00
2023-06-28T08:02:19.643Z,1159.00
2023-06-28T08:03:19.872Z,1140.00
2023-06-28T08:04:19.701Z,1190.00
2023-06-28T08:05:19.730Z,1233.00
2023-06-28T08:06:20.010Z,1286.00
2023-06-28T08:07:19.903Z,1381.00
2023-06-28T08:08:19.852Z,1443.00
2023-06-28T08:09:19.886Z,1383.00
2023-06-28T08:10:19.911Z,1399.00
2023-06-28T08:11:19.940Z,1409.00
2023-06-28T08:12:20.034Z,1421.00
2023-06-28T08:13:20.045Z,1468.00
2023-06-28T08:14:20.032Z,1457.00
2023-06-28T08:15:20.083Z,1464.00
2023-06-28T08:16:20.516Z,1467.00
2023-06-28T08:17:20.161Z,1484.00
2023-06-28T08:18:20.177Z,1518.00
2023-06-28T08:19:20.222Z,1535.00
2023-06-28T08:20:20.231Z,1542.00
2023-06-28T08:21:20.514Z,1558.00
2023-06-28T08:22:20.424Z,1566.00
2023-06-28T08:23:20.487Z,1599.00
2023-06-28T08:24:20.566Z,1598.00
2023-06-28T08:25:21.030Z,1594.00
2023-06-28T08:26:20.754Z,1636.00
2023-06-28T08:27:20.822Z,1632.00
2023-06-28T08:28:20.906Z,1647.00
2023-06-28T08:29:21.007Z,1655.00
2023-06-28T08:30:21.055Z,1678.00
2023-06-28T08:31:21.544Z,1684.00
2023-06-28T08:32:21.242Z,1703.00
2023-06-28T08:33:21.303Z,1716.00
2023-06-28T08:34:21.404Z,1737.00
2023-06-28T08:35:21.453Z,1760.00
2023-06-28T08:36:22.021Z,1793.00
2023-06-28T08:37:21.607Z,1784.00
2023-06-28T08:38:21.670Z,1794.00
2023-06-28T08:39:21.739Z,1815.00
2023-06-28T08:40:21.850Z,1817.00
2023-06-28T08:41:21.900Z,1838.00
2023-06-28T08:42:21.978Z,1841.00
2023-06-28T08:43:22.552Z,1634.00
2023-06-28T08:44:22.152Z,1380.00
2023-06-28T08:45:22.389Z,1205.00
2023-06-28T08:46:22.552Z,1133.00
2023-06-28T08:47:22.353Z,1031.00
2023-06-28T08:48:29.977Z,935.00
2023-06-28T08:49:22.429Z,890.00
2023-06-28T08:50:22.628Z,855.00
2023-06-28T08:51:22.523Z,784.00
2023-06-28T08:52:22.564Z,756.00
2023-06-28T08:53:22.610Z,729.00
2023-06-28T08:54:22.649Z,706.00
2023-06-28T08:55:22.688Z,685.00
2023-06-28T08:56:22.895Z,691.00
2023-06-28T08:57:22.773Z,701.00
2023-06-28T08:58:22.816Z,724.00
2023-06-28T08:59:22.863Z,698.00
2023-06-28T09:00:22.915Z,664.00
2023-06-28T09:01:23.184Z,654.00
2023-06-28T09:02:23.043Z,638.00
2023-06-28T09:03:23.636Z,628.00
2023-06-28T09:04:23.102Z,629.00
2023-06-28T09:05:23.158Z,626.00
2023-06-28T09:06:23.203Z,613.00
2023-06-28T09:07:23.330Z,612.00
2023-06-28T09:08:23.551Z,620.00
2023-06-28T09:09:23.356Z,633.00
2023-06-28T09:10:23.519Z,629.00
2023-06-28T09:11:23.450Z,621.00
2023-06-28T09:12:23.496Z,620.00
2023-06-28T09:13:23.543Z,627.00
2023-06-28T09:14:23.581Z,618.00
2023-06-28T09:15:23.649Z,623.00
2023-06-28T09:16:24.056Z,662.00
2023-06-28T09:17:24.205Z,655.00
2023-06-28T09:18:23.994Z,643.00
2023-06-28T09:19:24.116Z,648.00
2023-06-28T09:20:24.222Z,655.00
2023-06-28T09:21:24.347Z,652.00
2023-06-28T09:22:24.445Z,663.00
2023-06-28T09:23:24.583Z,687.00
2023-06-28T09:24:24.665Z,669.00
2023-06-28T09:25:24.753Z,683.00
2023-06-28T09:26:24.860Z,688.00
2023-06-28T09:27:24.963Z,719.00
2023-06-28T09:28:25.042Z,723.00
2023-06-28T09:29:25.145Z,723.00
2023-06-28T09:30:25.252Z,723.00
2023-06-28T09:31:25.586Z,768.00
2023-06-28T09:32:24.458Z,789.00
2023-06-28T09:33:25.596Z,798.00
2023-06-28T09:34:25.682Z,883.00
2023-06-28T09:35:25.811Z,894.00
2023-06-28T09:36:25.858Z,930.00
2023-06-28T09:37:25.957Z,929.00
2023-06-28T09:38:26.061Z,931.00
2023-06-28T09:39:26.231Z,930.00
2023-06-28T09:40:26.253Z,938.00
2023-06-28T09:41:26.339Z,899.00
2023-06-28T09:42:26.441Z,833.00
2023-06-28T09:43:26.661Z,790.00
2023-06-28T09:44:27.056Z,758.00
2023-06-28T09:45:28.067Z,769.00
2023-06-28T09:46:27.079Z,775.00
2023-06-28T09:47:27.073Z,786.00
2023-06-28T09:48:27.149Z,777.00
2023-06-28T09:49:27.240Z,750.00
2023-06-28T09:50:27.333Z,771.00
2023-06-28T09:51:27.562Z,850.00
2023-06-28T09:52:27.502Z,868.00
2023-06-28T09:53:27.562Z,922.00
2023-06-28T09:54:28.069Z,850.00
2023-06-28T09:55:27.713Z,857.00
2023-06-28T09:56:28.070Z,818.00
2023-06-28T09:57:28.007Z,795.00
2023-06-28T09:58:28.015Z,781.00
2023-06-28T09:59:34.661Z,760.00
2023-06-28T10:00:28.060Z,761.00
2023-06-28T10:01:28.082Z,761.00
2023-06-28T10:02:28.200Z,730.00
2023-06-28T10:03:28.257Z,753.00
2023-06-28T10:04:28.274Z,790.00
2023-06-28T10:05:28.261Z,827.00
2023-06-28T10:06:28.254Z,813.00
2023-06-28T10:07:28.309Z,808.00
2023-06-28T10:08:28.335Z,775.00
2023-06-28T10:09:28.374Z,701.00
2023-06-28T10:10:28.408Z,693.00
2023-06-28T10:11:28.579Z,667.00
2023-06-28T10:12:28.486Z,678.00
2023-06-28T10:13:28.541Z,728.00
2023-06-28T10:14:28.565Z,780.00
2023-06-28T10:15:28.593Z,773.00
2023-06-28T10:16:29.066Z,736.00
2023-06-28T10:17:28.727Z,715.00
2023-06-28T10:18:29.065Z,721.00
2023-06-28T10:19:28.738Z,742.00
2023-06-28T10:20:28.786Z,745.00
2023-06-28T10:21:28.852Z,720.00
2023-06-28T10:22:28.832Z,710.00
2023-06-28T10:23:28.864Z,738.00
2023-06-28T10:24:28.895Z,735.00
2023-06-28T10:25:28.950Z,718.00
2023-06-28T10:26:28.950Z,733.00
2023-06-28T10:27:28.964Z,731.00
2023-06-28T10:28:29.254Z,745.00
2023-06-28T10:29:29.025Z,761.00
2023-06-28T10:30:29.074Z,777.00
2023-06-28T10:31:29.249Z,804.00
2023-06-28T10:32:29.161Z,836.00
2023-06-28T10:33:29.607Z,903.00
2023-06-28T10:34:29.141Z,941.00
2023-06-28T10:35:29.606Z,983.00
2023-06-28T10:36:29.233Z,990.00
2023-06-28T10:37:29.388Z,991.00
2023-06-28T10:38:29.391Z,1027.00
2023-06-28T10:39:29.449Z,1068.00
2023-06-28T10:40:29.517Z,1079.00
2023-06-28T10:41:29.614Z,1081.00
2023-06-28T10:42:29.671Z,1098.00
2023-06-28T10:43:29.741Z,1115.00
2023-06-28T10:44:30.100Z,1116.00
2023-06-28T10:45:29.851Z,1120.00
2023-06-28T10:46:30.054Z,1129.00
2023-06-28T10:47:30.012Z,1157.00
2023-06-28T10:48:30.058Z,1141.00
2023-06-28T10:49:30.123Z,1183.00
2023-06-28T10:50:30.208Z,1206.00
2023-06-28T10:51:30.296Z,1197.00
2023-06-28T10:52:30.344Z,1216.00
2023-06-28T10:53:30.624Z,1243.00
2023-06-28T10:54:30.457Z,1250.00
2023-06-28T10:55:30.577Z,1262.00
2023-06-28T10:56:30.596Z,1267.00
2023-06-28T10:57:31.579Z,1285.00
2023-06-28T10:58:30.713Z,1297.00
2023-06-28T10:59:30.772Z,1320.00
2023-06-28T11:00:30.832Z,1333.00
2023-06-28T11:01:30.927Z,1329.00
2023-06-28T11:02:30.975Z,1325.00
2023-06-28T11:03:31.008Z,1325.00
2023-06-28T11:04:31.077Z,1322.00
2023-06-28T11:05:31.205Z,1342.00
2023-06-28T11:06:31.180Z,1338.00
2023-06-28T11:07:31.524Z,1353.00
2023-06-28T11:08:31.302Z,1354.00
2023-06-28T11:09:31.432Z,1355.00
2023-06-28T11:10:31.418Z,1371.00
2023-06-28T11:11:31.477Z,1380.00
2023-06-28T11:12:31.537Z,1365.00
2023-06-28T11:13:31.594Z,1370.00
2023-06-28T11:14:31.648Z,1361.00
2023-06-28T11:15:31.693Z,1370.00
2023-06-28T11:16:31.773Z,1378.00
2023-06-28T11:17:32.115Z,1400.00
2023-06-28T11:18:31.880Z,1429.00
2023-06-28T11:19:31.930Z,1433.00
2023-06-28T11:20:31.984Z,1462.00
2023-06-28T11:21:32.152Z,1459.00
2023-06-28T11:22:32.162Z,1465.00
2023-06-28T11:23:32.164Z,1486.00
2023-06-28T11:24:32.793Z,1499.00
2023-06-28T11:25:32.317Z,1505.00
2023-06-28T11:26:32.338Z,1509.00
2023-06-28T11:27:32.369Z,1498.00
2023-06-28T11:28:32.419Z,1483.00
2023-06-28T11:29:32.476Z,1492.00
2023-06-28T11:30:32.575Z,1511.00
2023-06-28T11:31:32.631Z,1491.00
2023-06-28T11:32:32.799Z,1481.00
2023-06-28T11:33:32.702Z,1483.00
2023-06-28T11:34:32.770Z,1509.00
2023-06-28T11:35:32.805Z,1530.00
2023-06-28T11:36:32.870Z,1530.00
2023-06-28T11:37:32.923Z,1508.00
2023-06-28T11:38:32.968Z,1523.00
2023-06-28T11:39:33.022Z,1517.00
2023-06-28T11:40:33.076Z,1526.00
2023-06-28T11:41:33.151Z,1520.00
2023-06-28T11:42:33.173Z,1524.00
2023-06-28T11:43:33.224Z,1513.00
2023-06-28T11:44:33.640Z,1511.00
2023-06-28T11:45:33.323Z,1493.00
2023-06-28T11:46:33.371Z,1487.00
2023-06-28T11:47:33.469Z,1508.00
2023-06-28T11:48:33.466Z,1502.00
2023-06-28T11:49:33.531Z,1488.00
2023-06-28T11:50:33.582Z,1467.00
2023-06-28T11:51:33.653Z,1450.00
2023-06-28T11:52:33.682Z,1439.00
2023-06-28T11:53:33.754Z,1470.00
2023-06-28T11:54:33.775Z,1422.00
2023-06-28T11:55:33.836Z,1419.00
2023-06-28T11:56:33.899Z,1421.00
2023-06-28T11:57:33.952Z,1413.00
2023-06-28T11:58:33.966Z,1418.00
2023-06-28T11:59:34.106Z,1466.00
2023-06-28T12:00:34.062Z,1483.00
2023-06-28T12:01:34.113Z,1496.00
2023-06-28T12:02:34.161Z,1493.00
2023-06-28T12:03:34.391Z,1492.00
2023-06-28T12:04:34.927Z,1481.00
2023-06-28T12:05:34.305Z,1480.00
2023-06-28T12:06:34.375Z,1483.00
2023-06-28T12:07:34.516Z,1484.00
2023-06-28T12:08:34.446Z,1486.00
2023-06-28T12:09:34.487Z,1492.00
2023-06-28T12:10:34.541Z,1491.00
2023-06-28T12:11:34.574Z,1483.00
2023-06-28T12:12:34.643Z,1495.00
2023-06-28T12:13:34.721Z,1493.00
2023-06-28T12:14:34.708Z,1488.00
2023-06-28T12:15:34.771Z,1499.00
2023-06-28T12:16:34.860Z,1504.00
2023-06-28T12:17:34.908Z,1498.00
2023-06-28T12:18:34.919Z,1497.00
2023-06-28T12:19:34.957Z,1487.00
2023-06-28T12:20:35.006Z,1495.00
2023-06-28T12:21:35.100Z,1493.00
2023-06-28T12:22:35.102Z,1511.00
2023-06-28T12:23:35.158Z,1501.00
2023-06-28T12:24:35.219Z,1496.00